Time;durP1;ratioP1;P1;durP2;ratioP2;P2;SDS_P1;SDS_P2;PMS_P1;PMS_P2;Temp;Humidity;BMP_temperature;BMP_pressure;BME280_temperature;BME280_humidity;BME280_pressure;Samples;Min_cycle;Max_cycle;Signal;HPM_P1;HPM_P2
2022/12/26 00:01:43;;;;;;;1.30;1.20;;;17.00;55.80;;;;;;5045549;28;45232;-79
2022/12/26 00:04:10;;;;;;;0.80;0.80;;;17.00;55.80;;;;;;5045807;28;45226;-79
2022/12/26 00:06:38;;;;;;;0.93;0.90;;;17.00;55.80;;;;;;5045794;28;45232;-79
2022/12/26 00:09:05;;;;;;;0.85;0.85;;;17.00;55.80;;;;;;5042624;28;45180;-79
2022/12/26 00:11:32;;;;;;;0.80;0.80;;;17.00;55.80;;;;;;5044765;28;45196;-79
2022/12/26 00:14:00;;;;;;;1.10;1.00;;;17.00;55.80;;;;;;5045191;27;45299;-79
2022/12/26 00:16:27;;;;;;;0.95;0.95;;;17.00;55.80;;;;;;5045544;28;45383;-79
2022/12/26 00:18:54;;;;;;;1.00;1.00;;;17.00;55.80;;;;;;5045078;28;45510;-79
2022/12/26 00:21:22;;;;;;;0.93;0.90;;;17.00;55.80;;;;;;5045581;28;45264;-79
2022/12/26 00:23:50;;;;;;;0.93;0.93;;;17.00;55.80;;;;;;5045103;28;45489;-79
2022/12/26 00:26:18;;;;;;;0.85;0.85;;;17.00;55.80;;;;;;5045027;28;45281;-78
2022/12/26 00:28:45;;;;;;;1.20;1.13;;;17.00;56.40;;;;;;5044930;28;45167;-79
2022/12/26 00:31:13;;;;;;;0.90;0.90;;;17.00;56.00;;;;;;5045695;28;45264;-80
2022/12/26 00:33:40;;;;;;;0.90;0.90;;;17.00;55.80;;;;;;5044976;28;45248;-79
2022/12/26 00:36:08;;;;;;;1.00;1.00;;;17.00;55.80;;;;;;5045412;28;45549;-79
2022/12/26 00:38:35;;;;;;;1.08;1.00;;;17.00;55.80;;;;;;5042272;28;46632;-79
2022/12/26 00:41:05;;;;;;;0.85;0.82;;;17.00;55.80;;;;;;5044637;27;45304;-79
2022/12/26 00:43:32;;;;;;;1.00;1.00;;;17.00;55.80;;;;;;5044657;28;45258;-79
2022/12/26 00:45:59;;;;;;;0.98;0.95;;;17.00;55.80;;;;;;5045113;28;45194;-80
2022/12/26 00:48:26;;;;;;;0.90;0.90;;;17.10;56.40;;;;;;5044525;28;46601;-79
2022/12/26 00:50:53;;;;;;;0.85;0.85;;;17.10;55.80;;;;;;5045069;28;45251;-79
2022/12/26 00:53:20;;;;;;;0.82;0.82;;;17.10;55.80;;;;;;5045145;28;45395;-79
2022/12/26 00:55:47;;;;;;;0.80;0.80;;;17.10;55.80;;;;;;5045415;28;45221;-80
2022/12/26 00:58:15;;;;;;;1.17;0.90;;;17.10;55.80;;;;;;5044773;28;47569;-80
2022/12/26 01:00:42;;;;;;;1.00;1.00;;;17.10;55.80;;;;;;5045202;28;45186;-79
2022/12/26 01:03:09;;;;;;;0.90;0.90;;;17.10;55.80;;;;;;5044730;28;45236;-79
2022/12/26 01:05:36;;;;;;;1.20;1.10;;;17.10;55.80;;;;;;5045062;28;45313;-79
2022/12/26 01:08:03;;;;;;;0.80;0.80;;;17.10;55.80;;;;;;5044822;28;47237;-79
2022/12/26 01:10:30;;;;;;;1.00;1.00;;;17.10;55.80;;;;;;5044526;28;45279;-78
2022/12/26 01:12:56;;;;;;;1.08;0.98;;;17.10;55.80;;;;;;5044215;28;45259;-79
2022/12/26 01:15:25;;;;;;;0.98;0.95;;;17.10;55.80;;;;;;5045027;28;45172;-79
2022/12/26 01:17:51;;;;;;;1.15;1.08;;;17.10;55.80;;;;;;5044532;28;46301;-80
2022/12/26 01:20:18;;;;;;;1.00;1.00;;;17.10;55.80;;;;;;5044118;28;45301;-79
2022/12/26 01:22:45;;;;;;;0.90;0.90;;;17.10;55.80;;;;;;5044664;28;45273;-79
2022/12/26 01:25:12;;;;;;;0.80;0.80;;;17.10;55.80;;;;;;5043084;28;45514;-79
2022/12/26 01:27:39;;;;;;;0.70;0.70;;;17.10;55.70;;;;;;5043851;28;45520;-79
2022/12/26 01:30:07;;;;;;;0.85;0.85;;;17.10;55.80;;;;;;5044138;28;45352;-79
2022/12/26 01:32:35;;;;;;;1.00;0.90;;;17.10;55.70;;;;;;5044287;27;45197;-79
2022/12/26 01:35:02;;;;;;;0.85;0.80;;;17.10;55.70;;;;;;5044673;28;45245;-79
2022/12/26 01:37:29;;;;;;;1.25;1.00;;;17.10;55.70;;;;;;5043865;28;46673;-79
2022/12/26 01:39:56;;;;;;;1.17;1.08;;;17.10;55.70;;;;;;5044084;28;45288;-80
2022/12/26 01:42:23;;;;;;;0.90;0.90;;;17.10;55.80;;;;;;5043913;28;45288;-79
2022/12/26 01:45:01;;;;;;;0.85;0.85;;;17.10;55.70;;;;;;5044017;28;45453;-79
2022/12/26 01:47:43;;;;;;;0.90;0.90;;;17.10;55.80;;;;;;5043831;28;46608;-80
2022/12/26 01:50:26;;;;;;;1.10;1.00;;;17.10;55.70;;;;;;5043823;28;45205;-79
2022/12/26 01:52:53;;;;;;;0.88;0.88;;;17.10;55.70;;;;;;5044164;28;45316;-79
2022/12/26 01:55:20;;;;;;;0.80;0.80;;;17.10;55.60;;;;;;5044486;28;45276;-80
2022/12/26 01:57:49;;;;;;;0.90;0.90;;;17.10;55.60;;;;;;5043548;28;47551;-80
2022/12/26 02:00:16;;;;;;;1.00;1.00;;;17.10;55.70;;;;;;5043694;28;45349;-79
2022/12/26 02:05:34;;;;;;;0.88;0.88;;;17.10;55.60;;;;;;5081489;28;45292;-80
2022/12/26 02:08:03;;;;;;;1.00;1.00;;;17.10;55.70;;;;;;5043379;28;46650;-79
2022/12/26 02:10:29;;;;;;;2.22;0.95;;;17.10;55.70;;;;;;5043434;28;45401;-79
2022/12/26 02:12:56;;;;;;;0.93;0.93;;;17.10;55.70;;;;;;5043372;28;45190;-77
2022/12/26 02:15:23;;;;;;;1.13;1.05;;;17.10;55.60;;;;;;5043302;28;45197;-79
2022/12/26 02:17:51;;;;;;;0.85;0.85;;;17.10;55.70;;;;;;5040549;28;45460;-79
2022/12/26 02:20:19;;;;;;;0.98;0.88;;;17.20;55.70;;;;;;5043620;28;45471;-79
2022/12/26 02:23:15;;;;;;;0.90;0.90;;;17.20;55.70;;;;;;5043383;28;45214;-80
2022/12/26 02:26:08;;;;;;;0.80;0.80;;;17.10;55.60;;;;;;5043654;28;45188;-80
2022/12/26 02:29:10;;;;;;;0.88;0.88;;;17.20;55.70;;;;;;5043169;28;46375;-80
2022/12/26 02:31:40;;;;;;;1.20;1.10;;;17.20;55.70;;;;;;5043079;27;45278;-80
2022/12/26 02:34:09;;;;;;;3.92;1.05;;;17.20;55.70;;;;;;5043142;28;45206;-79
2022/12/26 02:36:54;;;;;;;1.20;1.10;;;17.20;55.70;;;;;;5045785;28;45354;-79
2022/12/26 02:39:30;;;;;;;0.80;0.80;;;17.20;55.70;;;;;;5045917;28;46713;-80
2022/12/26 02:42:00;;;;;;;1.20;1.10;;;17.20;55.70;;;;;;5046024;28;45235;-79
2022/12/26 02:47:15;;;;;;;1.42;0.98;;;17.20;55.70;;;;;;5046791;28;45173;-79
2022/12/26 03:14:48;;;;;;;1.00;1.00;;;17.20;55.70;;;;;;5046346;28;45334;-79
2022/12/26 03:17:24;;;;;;;0.80;0.80;;;17.20;55.70;;;;;;5045893;28;45213;-79
2022/12/26 03:19:59;;;;;;;0.90;0.90;;;17.20;55.60;;;;;;5046119;28;45444;-79
2022/12/26 03:22:30;;;;;;;0.90;0.90;;;17.20;55.70;;;;;;5045642;28;45411;-80
2022/12/26 03:27:42;;;;;;;0.90;0.90;;;17.20;55.60;;;;;;5046070;28;45365;-79
2022/12/26 03:32:55;;;;;;;0.80;0.80;;;17.20;55.60;;;;;;5042801;28;45362;-79
2022/12/26 03:35:23;;;;;;;1.48;0.90;;;17.20;55.70;;;;;;5045735;28;45191;-79
2022/12/26 03:37:52;;;;;;;0.80;0.80;;;17.20;55.60;;;;;;5045757;28;45291;-80
2022/12/26 04:20:02;;;;;;;0.77;0.77;;;17.20;55.60;;;;;;5043638;28;45286;-79
2022/12/26 04:44:42;;;;;;;0.90;0.90;;;17.30;55.60;;;;;;5043270;28;45287;-78
2022/12/26 04:47:09;;;;;;;0.80;0.80;;;17.30;55.70;;;;;;5045838;28;45379;-79
2022/12/26 04:52:53;;;;;;;0.85;0.85;;;17.30;55.60;;;;;;5045851;28;45342;-79
2022/12/26 04:55:14;;;;;;;1.02;1.00;;;17.30;55.60;;;;;;5045543;28;45603;-79
2022/12/26 04:57:42;;;;;;;0.77;0.77;;;17.30;55.60;;;;;;5045848;28;45180;-79
2022/12/26 05:00:10;;;;;;;0.90;0.90;;;17.30;55.60;;;;;;5045023;28;45326;-79
2022/12/26 05:10:50;;;;;;;1.00;0.90;;;17.30;55.60;;;;;;5042600;28;45131;-79
2022/12/26 05:13:18;;;;;;;0.93;0.80;;;17.30;55.60;;;;;;5044880;27;45225;-79
2022/12/26 05:29:35;;;;;;;0.70;0.70;;;17.30;55.60;;;;;;5042535;28;45230;-79
2022/12/26 05:32:02;;;;;;;0.85;0.85;;;17.30;55.50;;;;;;5044637;28;45384;-79
2022/12/26 05:34:27;;;;;;;0.90;0.90;;;17.30;55.50;;;;;;5044410;28;45355;-79
2022/12/26 05:36:55;;;;;;;0.90;0.90;;;17.30;55.60;;;;;;5044310;28;45416;-79
2022/12/26 05:39:22;;;;;;;0.90;0.90;;;17.30;55.50;;;;;;5044659;28;45155;-79
2022/12/26 05:41:49;;;;;;;0.85;0.85;;;17.30;55.60;;;;;;5044240;28;47589;-79
2022/12/26 05:44:15;;;;;;;0.80;0.80;;;17.30;55.60;;;;;;5044068;28;45345;-80
2022/12/26 05:46:45;;;;;;;0.90;0.90;;;17.30;55.60;;;;;;5044381;28;45287;-79
2022/12/26 05:49:12;;;;;;;0.98;0.90;;;17.30;55.50;;;;;;5044310;28;45266;-79
2022/12/26 05:51:39;;;;;;;0.80;0.80;;;17.30;55.70;;;;;;5041277;28;45471;-79
2022/12/26 05:54:06;;;;;;;1.20;1.10;;;17.30;55.50;;;;;;5044329;28;45350;-79
2022/12/26 05:56:33;;;;;;;0.80;0.80;;;17.30;55.50;;;;;;5044444;28;45364;-79
2022/12/26 05:59:00;;;;;;;0.95;0.95;;;17.30;55.50;;;;;;5043461;28;45346;-80
2022/12/26 06:01:27;;;;;;;0.90;0.90;;;17.30;55.50;;;;;;5043943;28;45458;-79
2022/12/26 06:03:57;;;;;;;1.00;1.00;;;17.30;55.50;;;;;;5043863;27;45205;-79
2022/12/26 06:06:24;;;;;;;0.90;0.90;;;17.30;55.50;;;;;;5043867;28;45317;-80
2022/12/26 06:08:51;;;;;;;1.00;1.00;;;17.30;55.50;;;;;;5044015;28;45412;-79
2022/12/26 06:11:18;;;;;;;0.70;0.70;;;17.30;55.50;;;;;;5045492;27;45494;-79
2022/12/26 06:13:45;;;;;;;0.80;0.80;;;17.30;55.50;;;;;;5046785;28;45274;-79
2022/12/26 06:16:13;;;;;;;0.98;0.98;;;17.30;55.50;;;;;;5046874;28;45357;-79
2022/12/26 06:18:40;;;;;;;0.80;0.80;;;17.30;55.50;;;;;;5046843;28;45399;-79
2022/12/26 06:21:10;;;;;;;0.90;0.90;;;17.30;55.50;;;;;;5046537;28;45457;-79
2022/12/26 06:23:37;;;;;;;0.77;0.77;;;17.30;55.50;;;;;;5046501;27;45378;-79
2022/12/26 06:26:04;;;;;;;0.98;0.98;;;17.30;55.50;;;;;;5046369;28;45307;-79
2022/12/26 06:28:31;;;;;;;1.30;0.90;;;17.30;55.50;;;;;;5047166;28;45587;-79
2022/12/26 06:31:02;;;;;;;1.02;1.02;;;17.30;55.50;;;;;;5046525;28;45392;-79
2022/12/26 06:33:29;;;;;;;0.77;0.70;;;17.30;55.50;;;;;;5046192;27;45273;-79
2022/12/26 06:35:55;;;;;;;1.02;1.02;;;17.30;55.50;;;;;;5046599;28;45378;-80
2022/12/26 06:38:24;;;;;;;1.10;0.85;;;17.30;55.50;;;;;;5043998;28;45291;-79
2022/12/26 06:40:50;;;;;;;0.80;0.80;;;17.30;55.50;;;;;;5046290;28;45198;-79
2022/12/26 06:43:17;;;;;;;0.77;0.77;;;17.30;55.50;;;;;;5046222;28;45292;-78
2022/12/26 06:45:44;;;;;;;0.90;0.90;;;17.30;55.50;;;;;;5045587;28;45278;-80
2022/12/26 06:48:11;;;;;;;0.73;0.73;;;17.30;55.50;;;;;;5047014;28;45144;-80
2022/12/26 06:50:38;;;;;;;0.80;0.80;;;17.30;55.50;;;;;;5046064;28;46315;-79
2022/12/26 06:53:04;;;;;;;0.90;0.90;;;17.30;55.50;;;;;;5046052;28;45243;-77
2022/12/26 06:55:33;;;;;;;0.80;0.80;;;17.30;55.50;;;;;;5046213;28;45301;-77
2022/12/26 06:57:59;;;;;;;0.98;0.98;;;17.30;55.50;;;;;;5046388;28;45285;-79
2022/12/26 07:00:26;;;;;;;1.23;0.80;;;17.30;55.50;;;;;;5046214;28;46717;-79
2022/12/26 07:02:53;;;;;;;1.05;0.95;;;17.30;55.50;;;;;;5043429;28;45270;-79
2022/12/26 07:05:20;;;;;;;0.60;0.60;;;17.30;55.50;;;;;;5046006;28;45266;-77
2022/12/26 07:07:50;;;;;;;0.98;0.98;;;17.30;55.50;;;;;;5043596;28;45286;-77
2022/12/26 07:10:17;;;;;;;0.98;0.98;;;17.30;55.50;;;;;;5045661;28;45460;-78
2022/12/26 07:12:45;;;;;;;0.75;0.75;;;17.30;55.50;;;;;;5043194;28;45241;-79
2022/12/26 07:15:12;;;;;;;0.80;0.80;;;17.30;55.50;;;;;;5045936;28;45428;-79
2022/12/26 07:17:39;;;;;;;0.80;0.80;;;17.40;55.50;;;;;;5045978;28;45277;-79
2022/12/26 07:20:07;;;;;;;2.33;0.90;;;17.30;55.50;;;;;;5045897;28;46799;-77
2022/12/26 07:22:34;;;;;;;0.80;0.80;;;17.30;55.50;;;;;;5045876;28;45384;-79
2022/12/26 07:25:01;;;;;;;0.90;0.90;;;17.30;55.50;;;;;;5046036;28;45264;-79
2022/12/26 07:27:28;;;;;;;0.80;0.80;;;17.40;55.50;;;;;;5045447;28;45266;-79
2022/12/26 07:29:56;;;;;;;0.90;0.90;;;17.40;55.50;;;;;;5044987;27;45597;-79
2022/12/26 07:32:23;;;;;;;0.90;0.90;;;17.30;55.40;;;;;;5043028;27;45412;-80
2022/12/26 07:34:49;;;;;;;1.00;0.90;;;17.30;55.40;;;;;;5045536;27;45211;-79
2022/12/26 07:37:16;;;;;;;1.00;1.00;;;17.30;55.50;;;;;;5045988;28;45466;-79
2022/12/26 07:39:43;;;;;;;0.80;0.80;;;17.30;55.40;;;;;;5045314;28;45472;-80
2022/12/26 07:42:10;;;;;;;0.80;0.80;;;17.30;55.40;;;;;;5045171;28;45297;-79
2022/12/26 07:44:38;;;;;;;0.85;0.85;;;17.30;55.40;;;;;;5045299;28;45241;-79
2022/12/26 07:47:06;;;;;;;0.80;0.80;;;17.30;55.40;;;;;;5045521;28;45222;-79
2022/12/26 07:49:33;;;;;;;0.98;0.90;;;17.30;55.40;;;;;;5045050;28;46679;-79
2022/12/26 07:52:01;;;;;;;0.80;0.80;;;17.30;55.40;;;;;;5045009;28;45381;-79
2022/12/26 07:54:28;;;;;;;1.35;0.98;;;17.30;55.40;;;;;;5045581;28;45310;-79
2022/12/26 07:56:56;;;;;;;0.90;0.90;;;17.30;55.40;;;;;;5045591;28;45623;-79
2022/12/26 07:59:23;;;;;;;1.08;1.08;;;17.40;55.50;;;;;;5044957;28;46381;-79
2022/12/26 08:01:50;;;;;;;0.80;0.70;;;17.30;55.40;;;;;;5045027;28;45982;-79
2022/12/26 08:04:18;;;;;;;0.90;0.90;;;17.30;55.40;;;;;;5045092;28;45274;-78
2022/12/26 08:06:46;;;;;;;0.88;0.88;;;17.30;55.40;;;;;;5045300;28;45258;-79
2022/12/26 08:09:15;;;;;;;1.00;1.00;;;17.30;55.40;;;;;;5044797;28;45476;-79
2022/12/26 08:11:42;;;;;;;0.80;0.80;;;17.30;55.40;;;;;;5045018;28;45309;-79
2022/12/26 08:14:10;;;;;;;1.05;1.00;;;17.30;55.40;;;;;;5044404;28;45231;-79
2022/12/26 08:16:37;;;;;;;0.90;0.90;;;17.30;55.40;;;;;;5046059;28;45240;-79
2022/12/26 08:19:03;;;;;;;0.90;0.90;;;17.30;55.40;;;;;;5046207;28;46689;-79
2022/12/26 08:21:32;;;;;;;1.08;1.08;;;17.30;55.40;;;;;;5046433;28;46298;-79
2022/12/26 08:23:59;;;;;;;1.02;1.00;;;17.30;55.40;;;;;;5045654;27;45175;-79
2022/12/26 08:26:25;;;;;;;1.15;0.90;;;17.30;55.40;;;;;;5043538;28;45221;-80
2022/12/26 08:28:52;;;;;;;0.80;0.80;;;17.30;55.50;;;;;;5045702;28;45248;-79
2022/12/26 08:31:19;;;;;;;0.85;0.85;;;17.30;55.40;;;;;;5046511;28;45347;-80
2022/12/26 08:33:46;;;;;;;0.88;0.80;;;17.30;55.40;;;;;;5045236;28;45273;-80
2022/12/26 08:36:15;;;;;;;1.10;0.90;;;17.30;55.40;;;;;;5045786;28;45227;-80
2022/12/26 08:38:44;;;;;;;0.98;0.98;;;17.30;55.50;;;;;;5045043;28;45446;-80
2022/12/26 08:41:10;;;;;;;0.98;0.98;;;17.30;55.50;;;;;;5045234;28;45316;-80
2022/12/26 08:43:37;;;;;;;0.80;0.80;;;17.30;55.50;;;;;;5045702;27;45236;-78
2022/12/26 08:46:05;;;;;;;1.00;0.93;;;17.30;55.50;;;;;;5045575;28;45564;-78
2022/12/26 08:48:32;;;;;;;0.88;0.88;;;17.30;55.50;;;;;;5044961;28;46584;-78
2022/12/26 08:50:59;;;;;;;0.70;0.70;;;17.30;55.50;;;;;;5044627;27;45265;-80
2022/12/26 08:53:27;;;;;;;1.00;1.00;;;17.30;55.50;;;;;;5043741;28;45368;-79
2022/12/26 08:55:56;;;;;;;0.82;0.82;;;17.20;55.50;;;;;;5045078;27;45134;-77
2022/12/26 08:58:23;;;;;;;0.80;0.80;;;17.30;55.50;;;;;;5041074;28;45481;-78
2022/12/26 09:00:49;;;;;;;0.90;0.90;;;17.30;55.50;;;;;;5043351;28;45353;-79
2022/12/26 09:03:16;;;;;;;1.10;1.10;;;17.30;55.50;;;;;;5044960;28;45266;-80
2022/12/26 09:05:44;;;;;;;1.05;1.02;;;17.30;55.60;;;;;;5044938;28;45255;-79
2022/12/26 09:08:10;;;;;;;1.20;1.10;;;17.20;55.60;;;;;;5044740;28;45188;-79
2022/12/26 09:10:38;;;;;;;0.80;0.80;;;17.30;55.60;;;;;;5044755;28;45130;-78
2022/12/26 09:13:06;;;;;;;0.88;0.88;;;17.30;55.60;;;;;;5045493;28;45309;-78
2022/12/26 09:15:38;;;;;;;1.05;0.98;;;17.30;55.60;;;;;;5047693;27;45465;-79
2022/12/26 09:18:06;;;;;;;0.90;0.90;;;17.30;55.60;;;;;;5045833;27;45231;-78
2022/12/26 09:20:33;;;;;;;1.20;1.00;;;17.30;55.70;;;;;;5044575;28;45246;-79
2022/12/26 09:23:00;;;;;;;0.90;0.90;;;17.30;55.70;;;;;;5044634;28;45174;-78
2022/12/26 09:25:27;;;;;;;1.00;1.00;;;17.30;55.70;;;;;;5042035;28;45245;-78
2022/12/26 09:27:54;;;;;;;0.80;0.80;;;17.20;55.60;;;;;;5043761;27;45542;-78
2022/12/26 09:30:22;;;;;;;1.00;0.90;;;17.20;55.70;;;;;;5044072;27;45219;-78
2022/12/26 09:32:50;;;;;;;1.02;0.93;;;17.20;56.20;;;;;;5044124;28;45202;-78
2022/12/26 09:35:17;;;;;;;0.85;0.85;;;17.20;55.60;;;;;;5044459;28;45113;-78
2022/12/26 09:37:44;;;;;;;0.60;0.60;;;17.20;55.60;;;;;;5042723;28;45382;-78
2022/12/26 09:40:20;;;;;;;1.00;0.90;;;17.20;55.60;;;;;;5041592;28;45292;-78
2022/12/26 09:42:51;;;;;;;1.20;1.00;;;17.20;55.70;;;;;;5044860;28;45383;-78
2022/12/26 09:45:19;;;;;;;1.48;1.08;;;17.20;55.70;;;;;;5042916;28;45315;-77
2022/12/26 09:47:51;;;;;;;1.00;1.00;;;17.20;55.70;;;;;;5043364;27;47299;-78
2022/12/26 09:50:25;;;;;;;1.23;1.13;;;17.20;55.70;;;;;;5043909;28;45202;-79
2022/12/26 09:52:53;;;;;;;0.80;0.80;;;17.20;55.70;;;;;;5043965;28;45214;-79
2022/12/26 09:55:35;;;;;;;0.82;0.82;;;17.20;56.30;;;;;;5044567;28;45428;-78
2022/12/26 09:58:06;;;;;;;0.95;0.95;;;17.20;55.70;;;;;;5043684;27;48508;-79
2022/12/26 10:00:36;;;;;;;0.80;0.80;;;17.20;55.70;;;;;;5043985;28;45710;-78
2022/12/26 10:03:06;;;;;;;1.10;1.00;;;17.20;55.70;;;;;;5043918;28;45138;-78
2022/12/26 10:05:35;;;;;;;1.02;0.90;;;17.20;55.70;;;;;;5044078;28;45375;-78
2022/12/26 10:08:12;;;;;;;0.95;0.93;;;17.20;55.70;;;;;;5044512;28;45500;-78
2022/12/26 10:10:41;;;;;;;1.40;1.30;;;17.20;55.80;;;;;;5041352;28;45222;-79
2022/12/26 10:13:10;;;;;;;0.90;0.90;;;17.20;55.70;;;;;;5043768;28;45216;-79
2022/12/26 10:15:41;;;;;;;1.00;1.00;;;17.20;55.70;;;;;;5041299;28;45224;-78
2022/12/26 10:18:18;;;;;;;0.88;0.88;;;17.20;55.70;;;;;;5043446;28;47351;-78
2022/12/26 10:20:52;;;;;;;1.27;1.10;;;17.20;55.80;;;;;;5043423;28;45145;-78
2022/12/26 10:23:27;;;;;;;0.90;0.90;;;17.20;55.80;;;;;;5043657;28;45245;-78
2022/12/26 10:25:56;;;;;;;1.33;1.10;;;17.20;55.80;;;;;;5043760;28;45441;-78
2022/12/26 10:28:29;;;;;;;1.50;1.40;;;17.20;55.90;;;;;;5043459;27;45566;-78
2022/12/26 10:30:57;;;;;;;1.90;0.98;;;17.20;55.80;;;;;;5043946;27;45349;-79
2022/12/26 10:33:32;;;;;;;1.10;1.00;;;17.20;55.80;;;;;;5043740;28;45317;-78
2022/12/26 10:35:59;;;;;;;1.13;0.90;;;17.20;55.90;;;;;;5041394;28;45316;-78
2022/12/26 10:38:29;;;;;;;1.08;1.00;;;17.20;55.80;;;;;;5043543;28;46374;-78
2022/12/26 10:40:58;;;;;;;1.17;1.08;;;17.20;55.80;;;;;;5042544;28;45240;-78
2022/12/26 10:43:28;;;;;;;0.80;0.80;;;17.20;55.80;;;;;;5043437;28;45423;-79
2022/12/26 10:46:12;;;;;;;0.90;0.90;;;17.20;55.80;;;;;;5043602;27;45111;-78
2022/12/26 10:48:40;;;;;;;0.98;0.98;;;17.20;55.80;;;;;;5040362;28;45413;-77
2022/12/26 10:51:07;;;;;;;0.80;0.80;;;17.20;55.80;;;;;;5042596;27;45301;-78
2022/12/26 10:53:34;;;;;;;1.15;0.90;;;17.10;55.80;;;;;;5043427;28;45194;-78
2022/12/26 10:56:01;;;;;;;1.25;1.10;;;17.20;55.80;;;;;;5043876;28;45285;-78
2022/12/26 10:58:30;;;;;;;1.00;1.00;;;17.20;55.90;;;;;;5047025;28;45360;-78
2022/12/26 11:00:57;;;;;;;0.90;0.90;;;17.20;55.90;;;;;;5047308;28;45177;-78
2022/12/26 11:03:24;;;;;;;0.90;0.90;;;17.20;55.90;;;;;;5046988;28;45268;-78
2022/12/26 11:05:52;;;;;;;0.93;0.93;;;17.20;56.50;;;;;;5048475;28;44734;-77
2022/12/26 11:08:21;;;;;;;1.00;0.90;;;17.20;55.90;;;;;;5047599;28;45236;-78
2022/12/26 11:11:01;;;;;;;1.00;1.00;;;17.20;55.90;;;;;;5048102;27;45243;-79
2022/12/26 11:13:28;;;;;;;0.90;0.90;;;17.20;55.90;;;;;;5047122;28;45380;-79
2022/12/26 11:15:55;;;;;;;0.93;0.93;;;17.20;55.90;;;;;;5044840;28;45204;-78
2022/12/26 11:18:30;;;;;;;0.80;0.80;;;17.20;55.90;;;;;;5047789;28;45606;-78
2022/12/26 11:21:12;;;;;;;1.00;0.98;;;17.20;55.90;;;;;;5047615;28;45133;-79
2022/12/26 11:23:38;;;;;;;0.88;0.88;;;17.10;55.90;;;;;;5047930;28;45305;-78
2022/12/26 11:26:20;;;;;;;0.93;0.93;;;17.20;55.90;;;;;;5047899;27;45624;-78
2022/12/26 11:28:46;;;;;;;0.68;0.68;;;17.10;55.90;;;;;;5046700;28;48636;-78
2022/12/26 11:31:20;;;;;;;0.90;0.90;;;17.20;55.90;;;;;;5046830;28;45278;-79
2022/12/26 11:33:47;;;;;;;0.85;0.85;;;17.10;55.90;;;;;;5047486;28;45290;-79
2022/12/26 11:36:20;;;;;;;1.05;1.05;;;17.10;55.90;;;;;;5047922;28;45311;-79
2022/12/26 11:38:52;;;;;;;0.90;0.90;;;17.10;55.90;;;;;;5047155;27;45294;-79
2022/12/26 11:41:38;;;;;;;0.82;0.82;;;17.10;56.50;;;;;;5046818;28;45233;-79
2022/12/26 11:44:25;;;;;;;1.13;0.98;;;17.10;55.90;;;;;;5047267;28;45401;-78
2022/12/26 11:46:55;;;;;;;0.80;0.80;;;17.10;55.90;;;;;;5047222;28;45481;-78
2022/12/26 11:49:25;;;;;;;0.80;0.80;;;17.10;55.90;;;;;;5047035;28;45476;-79
2022/12/26 11:51:55;;;;;;;0.80;0.80;;;17.10;56.00;;;;;;5047426;28;45282;-79
2022/12/26 11:54:44;;;;;;;1.10;1.00;;;17.10;55.90;;;;;;5047668;28;45328;-78
2022/12/26 11:57:19;;;;;;;1.40;1.30;;;17.10;55.90;;;;;;5047465;27;45228;-78
2022/12/26 11:59:46;;;;;;;0.80;0.80;;;17.10;56.00;;;;;;5046167;28;45737;-79
2022/12/26 12:02:16;;;;;;;0.90;0.90;;;17.10;56.00;;;;;;5046548;28;45359;-78
2022/12/26 12:04:43;;;;;;;1.45;1.00;;;17.10;56.00;;;;;;5045868;28;45214;-77
2022/12/26 12:07:16;;;;;;;0.85;0.85;;;17.10;56.00;;;;;;5043654;28;45317;-79
2022/12/26 12:09:45;;;;;;;1.00;1.00;;;17.10;56.00;;;;;;5045209;28;45192;-78
2022/12/26 12:12:14;;;;;;;0.80;0.80;;;17.10;56.00;;;;;;5045756;28;45278;-78
2022/12/26 12:14:49;;;;;;;1.00;0.90;;;17.10;56.00;;;;;;5046028;28;45141;-79
2022/12/26 12:17:21;;;;;;;0.80;0.80;;;17.10;56.00;;;;;;5046072;28;45231;-79
2022/12/26 12:19:54;;;;;;;1.00;0.90;;;17.10;56.00;;;;;;5045992;27;47143;-79
2022/12/26 12:22:32;;;;;;;0.73;0.73;;;17.10;56.00;;;;;;5045740;28;45338;-79
2022/12/26 12:25:18;;;;;;;0.80;0.80;;;17.10;56.10;;;;;;5045789;27;45267;-79
2022/12/26 12:27:47;;;;;;;1.85;1.00;;;17.10;56.00;;;;;;5031266;28;45278;-79
2022/12/26 12:30:17;;;;;;;1.00;0.98;;;17.10;56.70;;;;;;5044721;28;45237;-77
2022/12/26 12:33:01;;;;;;;0.80;0.80;;;17.10;56.10;;;;;;5045366;28;45332;-78
2022/12/26 12:35:39;;;;;;;1.45;0.80;;;17.10;56.10;;;;;;5045457;28;45366;-77
2022/12/26 12:38:16;;;;;;;0.85;0.80;;;17.10;56.10;;;;;;5045658;27;45132;-78
2022/12/26 12:40:47;;;;;;;1.52;0.70;;;17.10;56.10;;;;;;5045415;27;46389;-78
2022/12/26 12:43:16;;;;;;;1.17;0.90;;;17.00;56.10;;;;;;5045664;28;44712;-78
2022/12/26 12:45:53;;;;;;;0.88;0.70;;;17.00;56.00;;;;;;5045500;27;45184;-78
2022/12/26 12:48:36;;;;;;;0.95;0.93;;;17.00;56.20;;;;;;5045956;28;45318;-78
2022/12/26 12:51:10;;;;;;;0.90;0.90;;;17.10;56.20;;;;;;5045566;28;46373;-78
2022/12/26 12:53:50;;;;;;;0.93;0.93;;;17.00;56.10;;;;;;5045299;27;45214;-78
2022/12/26 12:56:22;;;;;;;0.70;0.70;;;17.00;56.70;;;;;;5045933;28;45303;-78
2022/12/26 12:58:53;;;;;;;1.92;1.10;;;17.00;56.10;;;;;;5043801;28;45130;-78
2022/12/26 13:01:24;;;;;;;4.43;0.90;;;17.00;56.20;;;;;;5043410;28;46605;-77
2022/12/26 13:03:56;;;;;;;7.60;1.13;;;17.00;56.40;;;;;;5047234;28;45414;-76
2022/12/26 13:06:27;;;;;;;18.55;14.95;;;17.00;57.50;;;;;;5045688;27;45176;-78
2022/12/26 13:08:56;;;;;;;9.70;7.70;;;17.10;57.80;;;;;;5043762;28;45334;-78
2022/12/26 13:11:26;;;;;;;5.78;5.28;;;17.20;57.00;;;;;;5045387;28;45655;-78
2022/12/26 13:13:54;;;;;;;6.65;6.05;;;17.20;57.40;;;;;;5045194;28;45250;-78
2022/12/26 13:16:23;;;;;;;4.88;4.45;;;17.20;56.70;;;;;;5044885;28;45215;-78
2022/12/26 13:18:51;;;;;;;5.13;4.05;;;17.20;56.60;;;;;;5045049;28;45131;-77
2022/12/26 13:21:18;;;;;;;5.30;4.13;;;17.20;56.60;;;;;;5044762;28;47478;-78
2022/12/26 13:26:35;;;;;;;3.92;3.63;;;17.20;56.50;;;;;;5045727;28;45298;-77
2022/12/26 13:29:04;;;;;;;4.43;3.47;;;17.10;56.50;;;;;;5045506;28;45441;-77
2022/12/26 13:31:35;;;;;;;3.95;3.50;;;17.10;56.50;;;;;;5045251;27;45478;-78
2022/12/26 13:34:02;;;;;;;3.38;3.05;;;17.10;56.40;;;;;;5044834;28;45308;-75
2022/12/26 13:36:37;;;;;;;3.72;3.42;;;17.10;56.40;;;;;;5044756;28;45289;-78
2022/12/26 13:39:30;;;;;;;4.22;3.55;;;17.10;56.40;;;;;;5045064;28;45373;-77
2022/12/26 13:44:45;;;;;;;4.90;2.83;;;17.10;56.40;;;;;;5049481;28;45301;-75
2022/12/26 13:47:33;;;;;;;5.32;2.90;;;17.10;56.70;;;;;;5047502;28;45214;-74
2022/12/26 13:50:34;;;;;;;2.90;2.65;;;17.10;56.90;;;;;;5062810;28;45419;-77
2022/12/26 13:53:01;;;;;;;2.80;2.60;;;17.10;56.80;;;;;;5064864;28;45473;-77
2022/12/26 13:55:31;;;;;;;4.97;2.60;;;17.10;56.70;;;;;;5066404;28;45215;-77
2022/12/26 13:58:25;;;;;;;2.85;2.47;;;17.10;56.70;;;;;;5066636;27;45295;-77
2022/12/26 14:00:53;;;;;;;4.70;2.70;;;17.10;56.60;;;;;;5059333;27;45384;-78
2022/12/26 14:03:41;;;;;;;2.88;2.67;;;17.10;56.50;;;;;;5069268;27;46802;-77
2022/12/26 14:06:18;;;;;;;4.22;2.42;;;17.10;56.50;;;;;;5069196;28;45277;-77
2022/12/26 14:09:02;;;;;;;3.60;2.00;;;17.10;56.50;;;;;;5069322;28;45141;-77
2022/12/26 14:11:41;;;;;;;2.60;2.40;;;17.10;56.50;;;;;;5068383;27;45529;-77
2022/12/26 14:14:15;;;;;;;2.65;2.15;;;17.10;56.60;;;;;;5068517;28;45273;-77
2022/12/26 14:16:45;;;;;;;4.03;2.58;;;17.10;56.50;;;;;;5069038;28;45301;-77
2022/12/26 14:19:17;;;;;;;2.85;2.55;;;17.00;56.50;;;;;;5071024;28;45242;-77
2022/12/26 14:21:48;;;;;;;2.40;2.20;;;17.10;56.50;;;;;;5070738;27;44730;-77
2022/12/26 14:24:24;;;;;;;3.67;2.70;;;17.00;56.50;;;;;;5070377;28;46582;-77
2022/12/26 14:26:53;;;;;;;2.20;2.00;;;17.00;56.50;;;;;;5070041;28;45125;-77
2022/12/26 14:29:25;;;;;;;2.13;1.92;;;17.00;56.50;;;;;;5070509;28;45263;-78
2022/12/26 14:31:59;;;;;;;2.50;1.92;;;17.00;56.50;;;;;;5071134;27;45488;-76
2022/12/26 14:34:30;;;;;;;3.72;2.10;;;17.00;56.50;;;;;;5072311;28;46643;-77
2022/12/26 14:36:59;;;;;;;3.03;2.25;;;17.00;56.50;;;;;;5071532;28;45309;-75
2022/12/26 14:39:30;;;;;;;2.42;2.10;;;17.00;56.50;;;;;;5071254;27;45205;-77
2022/12/26 14:45:13;;;;;;;2.15;2.03;;;17.00;56.50;;;;;;5073514;28;45926;-77
2022/12/26 14:47:42;;;;;;;2.67;2.47;;;17.00;56.50;;;;;;5075260;28;45153;-77
2022/12/26 14:50:34;;;;;;;2.88;1.70;;;17.00;56.50;;;;;;5074058;27;45301;-77
2022/12/26 14:53:36;;;;;;;1.77;1.67;;;17.00;56.50;;;;;;5074525;28;45349;-77
2022/12/26 14:56:03;;;;;;;2.28;1.90;;;17.00;56.50;;;;;;5066781;27;45168;-77
2022/12/26 14:58:45;;;;;;;3.95;1.80;;;17.00;56.50;;;;;;5075592;27;45159;-76
2022/12/26 15:01:46;;;;;;;2.30;1.83;;;17.00;56.60;;;;;;5072903;27;45275;-77
2022/12/26 15:04:51;;;;;;;1.95;1.75;;;17.00;56.50;;;;;;5068634;27;45233;-77
2022/12/26 15:07:33;;;;;;;1.85;1.75;;;17.00;56.60;;;;;;4990949;28;45416;-77
2022/12/26 15:10:34;;;;;;;4.25;2.10;;;17.00;56.50;;;;;;4991868;28;45200;-76
2022/12/26 15:13:38;;;;;;;1.80;1.70;;;16.90;56.50;;;;;;5055599;28;45310;-77
2022/12/26 15:16:36;;;;;;;2.75;1.90;;;17.00;56.50;;;;;;5070602;28;45434;-76
2022/12/26 15:19:31;;;;;;;2.55;1.88;;;16.90;56.50;;;;;;5048724;28;45325;-77